sensor_id;sensor_type;location;lat;lon;timestamp;temperature;humidity
38902;DHT22;24661;53.566;9.910;2022-08-01T00:00:24;18.10;99.90
38902;DHT22;24661;53.566;9.910;2022-08-01T00:02:49;18.10;99.90
38902;DHT22;24661;53.566;9.910;2022-08-01T00:05:15;18.10;99.90
38902;DHT22;24661;53.566;9.910;2022-08-01T00:07:41;18.00;99.90
38902;DHT22;24661;53.566;9.910;2022-08-01T00:10:09;18.20;99.90
38902;DHT22;24661;53.566;9.910;2022-08-01T00:12:35;18.10;99.90
38902;DHT22;24661;53.566;9.910;2022-08-01T00:15:01;15.70;99.90
38902;DHT22;24661;53.566;9.910;2022-08-01T00:17:27;18.10;99.90
38902;DHT22;24661;53.566;9.910;2022-08-01T00:19:54;18.10;99.90
38902;DHT22;24661;53.566;9.910;2022-08-01T00:22:19;18.10;99.90
38902;DHT22;24661;53.566;9.910;2022-08-01T00:24:45;18.10;99.90
38902;DHT22;24661;53.566;9.910;2022-08-01T00:27:10;19.80;99.90
38902;DHT22;24661;53.566;9.910;2022-08-01T00:29:36;17.90;99.90
38902;DHT22;24661;53.566;9.910;2022-08-01T00:32:02;18.10;99.90
38902;DHT22;24661;53.566;9.910;2022-08-01T00:34:27;18.10;99.90
38902;DHT22;24661;53.566;9.910;2022-08-01T00:36:53;18.10;99.90
38902;DHT22;24661;53.566;9.910;2022-08-01T00:39:18;18.10;99.90
38902;DHT22;24661;53.566;9.910;2022-08-01T00:41:44;18.00;99.90
38902;DHT22;24661;53.566;9.910;2022-08-01T00:44:10;18.10;99.90
38902;DHT22;24661;53.566;9.910;2022-08-01T00:46:35;18.10;99.90
38902;DHT22;24661;53.566;9.910;2022-08-01T00:49:02;18.10;99.90
38902;DHT22;24661;53.566;9.910;2022-08-01T00:51:27;18.10;99.90
38902;DHT22;24661;53.566;9.910;2022-08-01T00:53:54;18.00;99.90
38902;DHT22;24661;53.566;9.910;2022-08-01T00:56:21;18.90;99.90
38902;DHT22;24661;53.566;9.910;2022-08-01T00:58:47;18.10;99.90
38902;DHT22;24661;53.566;9.910;2022-08-01T01:01:13;18.00;99.90
38902;DHT22;24661;53.566;9.910;2022-08-01T01:03:38;18.10;99.90
38902;DHT22;24661;53.566;9.910;2022-08-01T01:08:43;18.10;99.90
38902;DHT22;24661;53.566;9.910;2022-08-01T01:11:21;18.10;99.90
38902;DHT22;24661;53.566;9.910;2022-08-01T01:13:53;18.00;99.90
38902;DHT22;24661;53.566;9.910;2022-08-01T01:16:21;18.10;99.90
38902;DHT22;24661;53.566;9.910;2022-08-01T01:18:57;18.00;99.90
38902;DHT22;24661;53.566;9.910;2022-08-01T01:27:24;18.10;99.90
38902;DHT22;24661;53.566;9.910;2022-08-01T01:29:56;18.10;99.90
38902;DHT22;24661;53.566;9.910;2022-08-01T01:32:33;18.00;99.90
38902;DHT22;24661;53.566;9.910;2022-08-01T01:35:08;18.00;99.90
38902;DHT22;24661;53.566;9.910;2022-08-01T01:37:34;18.00;99.90
38902;DHT22;24661;53.566;9.910;2022-08-01T01:40:04;18.00;99.90
38902;DHT22;24661;53.566;9.910;2022-08-01T01:42:32;18.00;99.90
38902;DHT22;24661;53.566;9.910;2022-08-01T01:45:00;18.00;99.90
38902;DHT22;24661;53.566;9.910;2022-08-01T01:47:29;18.00;99.90
38902;DHT22;24661;53.566;9.910;2022-08-01T01:49:57;18.00;99.90
38902;DHT22;24661;53.566;9.910;2022-08-01T01:52:24;18.00;99.90
38902;DHT22;24661;53.566;9.910;2022-08-01T01:54:52;18.00;99.90
38902;DHT22;24661;53.566;9.910;2022-08-01T01:57:19;18.00;99.90
38902;DHT22;24661;53.566;9.910;2022-08-01T01:59:46;17.90;99.90
38902;DHT22;24661;53.566;9.910;2022-08-01T02:02:14;18.00;99.90
38902;DHT22;24661;53.566;9.910;2022-08-01T02:04:44;17.90;99.90
38902;DHT22;24661;53.566;9.910;2022-08-01T02:07:14;17.90;99.90
38902;DHT22;24661;53.566;9.910;2022-08-01T02:09:42;17.90;99.90
38902;DHT22;24661;53.566;9.910;2022-08-01T02:12:10;17.90;99.90
38902;DHT22;24661;53.566;9.910;2022-08-01T02:14:37;17.90;99.90
38902;DHT22;24661;53.566;9.910;2022-08-01T02:17:05;17.90;99.90
38902;DHT22;24661;53.566;9.910;2022-08-01T02:19:32;17.80;99.90
38902;DHT22;24661;53.566;9.910;2022-08-01T02:22:06;17.90;99.90
38902;DHT22;24661;53.566;9.910;2022-08-01T02:24:37;17.80;99.90
38902;DHT22;24661;53.566;9.910;2022-08-01T02:27:15;17.80;99.90
38902;DHT22;24661;53.566;9.910;2022-08-01T02:29:47;17.80;99.90
38902;DHT22;24661;53.566;9.910;2022-08-01T02:32:27;17.90;99.90
38902;DHT22;24661;53.566;9.910;2022-08-01T02:34:57;17.80;99.90
38902;DHT22;24661;53.566;9.910;2022-08-01T02:37:26;17.80;99.90
38902;DHT22;24661;53.566;9.910;2022-08-01T02:39:54;17.80;99.90
38902;DHT22;24661;53.566;9.910;2022-08-01T02:42:23;17.80;99.90
38902;DHT22;24661;53.566;9.910;2022-08-01T02:44:50;17.80;99.90
38902;DHT22;24661;53.566;9.910;2022-08-01T02:47:19;17.80;99.90
38902;DHT22;24661;53.566;9.910;2022-08-01T02:49:47;17.80;99.90
38902;DHT22;24661;53.566;9.910;2022-08-01T02:52:16;17.80;99.90
38902;DHT22;24661;53.566;9.910;2022-08-01T02:54:43;17.80;99.90
38902;DHT22;24661;53.566;9.910;2022-08-01T02:57:10;17.80;99.90
38902;DHT22;24661;53.566;9.910;2022-08-01T02:59:37;17.80;99.90
38902;DHT22;24661;53.566;9.910;2022-08-01T03:02:04;17.80;99.90
38902;DHT22;24661;53.566;9.910;2022-08-01T03:04:33;17.80;99.90
38902;DHT22;24661;53.566;9.910;2022-08-01T03:07:00;17.80;99.90
38902;DHT22;24661;53.566;9.910;2022-08-01T03:09:28;17.80;99.90
38902;DHT22;24661;53.566;9.910;2022-08-01T03:11:57;17.80;99.90
38902;DHT22;24661;53.566;9.910;2022-08-01T03:14:24;17.80;99.90
38902;DHT22;24661;53.566;9.910;2022-08-01T03:16:51;17.80;99.90
38902;DHT22;24661;53.566;9.910;2022-08-01T03:19:18;17.80;99.90
38902;DHT22;24661;53.566;9.910;2022-08-01T03:21:46;17.80;99.90
38902;DHT22;24661;53.566;9.910;2022-08-01T03:24:14;17.70;99.90
38902;DHT22;24661;53.566;9.910;2022-08-01T03:26:41;17.90;99.90
38902;DHT22;24661;53.566;9.910;2022-08-01T03:29:16;17.70;99.90
38902;DHT22;24661;53.566;9.910;2022-08-01T03:31:44;17.80;99.90
38902;DHT22;24661;53.566;9.910;2022-08-01T03:34:10;17.70;99.90
38902;DHT22;24661;53.566;9.910;2022-08-01T03:36:45;17.80;99.90
38902;DHT22;24661;53.566;9.910;2022-08-01T03:39:12;17.80;99.90
38902;DHT22;24661;53.566;9.910;2022-08-01T03:41:42;17.80;99.90
38902;DHT22;24661;53.566;9.910;2022-08-01T03:44:13;17.80;99.90
38902;DHT22;24661;53.566;9.910;2022-08-01T03:46:46;17.80;99.90
38902;DHT22;24661;53.566;9.910;2022-08-01T03:49:17;17.80;99.90
38902;DHT22;24661;53.566;9.910;2022-08-01T03:51:46;17.80;99.90
38902;DHT22;24661;53.566;9.910;2022-08-01T03:54:15;17.70;99.90
38902;DHT22;24661;53.566;9.910;2022-08-01T03:56:42;17.70;99.90
38902;DHT22;24661;53.566;9.910;2022-08-01T03:59:09;17.70;99.90
38902;DHT22;24661;53.566;9.910;2022-08-01T04:01:36;17.70;99.90
38902;DHT22;24661;53.566;9.910;2022-08-01T04:04:02;17.70;99.90
38902;DHT22;24661;53.566;9.910;2022-08-01T04:06:30;17.70;99.90
38902;DHT22;24661;53.566;9.910;2022-08-01T04:08:56;17.70;99.90
38902;DHT22;24661;53.566;9.910;2022-08-01T04:11:25;17.70;99.90
38902;DHT22;24661;53.566;9.910;2022-08-01T04:13:53;17.70;99.90
38902;DHT22;24661;53.566;9.910;2022-08-01T04:16:20;17.70;99.90
38902;DHT22;24661;53.566;9.910;2022-08-01T04:18:46;17.70;99.90
38902;DHT22;24661;53.566;9.910;2022-08-01T04:21:13;17.80;99.90
38902;DHT22;24661;53.566;9.910;2022-08-01T04:23:40;17.70;99.90
38902;DHT22;24661;53.566;9.910;2022-08-01T04:26:07;17.80;99.90
38902;DHT22;24661;53.566;9.910;2022-08-01T04:28:36;17.80;99.90
38902;DHT22;24661;53.566;9.910;2022-08-01T04:31:02;17.80;99.90
38902;DHT22;24661;53.566;9.910;2022-08-01T04:33:33;17.80;99.90
38902;DHT22;24661;53.566;9.910;2022-08-01T04:36:02;17.80;99.90
38902;DHT22;24661;53.566;9.910;2022-08-01T04:38:32;17.80;99.90
38902;DHT22;24661;53.566;9.910;2022-08-01T04:40:58;17.80;99.90
38902;DHT22;24661;53.566;9.910;2022-08-01T04:43:24;17.80;99.90
38902;DHT22;24661;53.566;9.910;2022-08-01T04:45:51;17.80;99.90
38902;DHT22;24661;53.566;9.910;2022-08-01T04:48:17;17.70;99.90
38902;DHT22;24661;53.566;9.910;2022-08-01T04:50:45;17.70;99.90
38902;DHT22;24661;53.566;9.910;2022-08-01T04:53:19;17.70;99.90
38902;DHT22;24661;53.566;9.910;2022-08-01T04:55:47;17.70;99.90
38902;DHT22;24661;53.566;9.910;2022-08-01T04:58:17;17.70;99.90
38902;DHT22;24661;53.566;9.910;2022-08-01T05:00:42;17.70;99.90
38902;DHT22;24661;53.566;9.910;2022-08-01T05:03:08;17.70;99.90
38902;DHT22;24661;53.566;9.910;2022-08-01T05:05:34;17.50;99.90
38902;DHT22;24661;53.566;9.910;2022-08-01T05:08:00;17.60;99.90
38902;DHT22;24661;53.566;9.910;2022-08-01T05:10:26;17.60;99.90
38902;DHT22;24661;53.566;9.910;2022-08-01T05:12:52;17.70;99.90
38902;DHT22;24661;53.566;9.910;2022-08-01T05:15:17;17.60;99.90
38902;DHT22;24661;53.566;9.910;2022-08-01T05:17:43;17.60;99.90
38902;DHT22;24661;53.566;9.910;2022-08-01T05:20:10;17.60;99.90
38902;DHT22;24661;53.566;9.910;2022-08-01T05:22:37;17.60;99.90
38902;DHT22;24661;53.566;9.910;2022-08-01T05:25:03;17.60;99.90
38902;DHT22;24661;53.566;9.910;2022-08-01T05:27:30;17.60;99.90
38902;DHT22;24661;53.566;9.910;2022-08-01T05:29:56;17.70;99.90
38902;DHT22;24661;53.566;9.910;2022-08-01T05:32:22;17.60;99.90
38902;DHT22;24661;53.566;9.910;2022-08-01T05:34:48;17.70;99.90
38902;DHT22;24661;53.566;9.910;2022-08-01T05:37:13;17.70;99.90
38902;DHT22;24661;53.566;9.910;2022-08-01T05:39:39;17.80;99.90
38902;DHT22;24661;53.566;9.910;2022-08-01T05:42:05;17.70;99.90
38902;DHT22;24661;53.566;9.910;2022-08-01T05:44:30;17.70;99.90
38902;DHT22;24661;53.566;9.910;2022-08-01T05:46:56;17.70;99.90
38902;DHT22;24661;53.566;9.910;2022-08-01T05:49:22;17.70;99.90
38902;DHT22;24661;53.566;9.910;2022-08-01T05:51:47;17.70;99.90
38902;DHT22;24661;53.566;9.910;2022-08-01T05:54:13;17.70;99.90
38902;DHT22;24661;53.566;9.910;2022-08-01T05:56:38;17.60;99.90
38902;DHT22;24661;53.566;9.910;2022-08-01T05:59:04;17.60;99.90
38902;DHT22;24661;53.566;9.910;2022-08-01T06:01:30;17.60;99.90
38902;DHT22;24661;53.566;9.910;2022-08-01T06:03:55;17.60;99.90
38902;DHT22;24661;53.566;9.910;2022-08-01T06:06:21;17.60;99.90
38902;DHT22;24661;53.566;9.910;2022-08-01T06:08:47;17.60;99.90
38902;DHT22;24661;53.566;9.910;2022-08-01T06:11:14;17.70;99.90
38902;DHT22;24661;53.566;9.910;2022-08-01T06:13:40;17.70;99.90
38902;DHT22;24661;53.566;9.910;2022-08-01T06:16:05;17.80;99.90
38902;DHT22;24661;53.566;9.910;2022-08-01T06:18:31;17.70;99.90
38902;DHT22;24661;53.566;9.910;2022-08-01T06:20:57;17.70;99.90
38902;DHT22;24661;53.566;9.910;2022-08-01T06:23:28;17.80;99.90
38902;DHT22;24661;53.566;9.910;2022-08-01T06:25:54;17.70;99.90
38902;DHT22;24661;53.566;9.910;2022-08-01T06:28:21;17.70;99.90
38902;DHT22;24661;53.566;9.910;2022-08-01T06:30:46;17.60;99.90
38902;DHT22;24661;53.566;9.910;2022-08-01T06:33:12;17.70;99.90
38902;DHT22;24661;53.566;9.910;2022-08-01T06:35:37;17.70;99.90
38902;DHT22;24661;53.566;9.910;2022-08-01T06:38:03;17.70;99.90
38902;DHT22;24661;53.566;9.910;2022-08-01T06:40:29;17.70;99.90
38902;DHT22;24661;53.566;9.910;2022-08-01T06:42:54;17.80;99.90
38902;DHT22;24661;53.566;9.910;2022-08-01T06:45:20;17.80;99.90
38902;DHT22;24661;53.566;9.910;2022-08-01T06:47:48;17.80;99.90
38902;DHT22;24661;53.566;9.910;2022-08-01T06:50:13;17.90;99.90
38902;DHT22;24661;53.566;9.910;2022-08-01T06:52:40;17.90;99.90
38902;DHT22;24661;53.566;9.910;2022-08-01T06:55:06;18.00;99.90
38902;DHT22;24661;53.566;9.910;2022-08-01T06:57:32;18.00;99.90
38902;DHT22;24661;53.566;9.910;2022-08-01T07:00:03;18.00;99.90
38902;DHT22;24661;53.566;9.910;2022-08-01T07:02:29;18.10;99.90
38902;DHT22;24661;53.566;9.910;2022-08-01T07:04:54;18.10;99.90
38902;DHT22;24661;53.566;9.910;2022-08-01T07:07:20;18.10;99.90
38902;DHT22;24661;53.566;9.910;2022-08-01T07:09:46;18.20;99.90
38902;DHT22;24661;53.566;9.910;2022-08-01T07:12:11;18.20;99.90
38902;DHT22;24661;53.566;9.910;2022-08-01T07:14:37;18.20;99.90
38902;DHT22;24661;53.566;9.910;2022-08-01T07:17:03;18.20;99.90
38902;DHT22;24661;53.566;9.910;2022-08-01T07:19:28;18.20;99.90
38902;DHT22;24661;53.566;9.910;2022-08-01T07:21:54;18.20;99.90
38902;DHT22;24661;53.566;9.910;2022-08-01T07:24:20;18.20;99.90
38902;DHT22;24661;53.566;9.910;2022-08-01T07:26:48;18.10;99.90
38902;DHT22;24661;53.566;9.910;2022-08-01T07:29:13;18.10;99.90
38902;DHT22;24661;53.566;9.910;2022-08-01T07:31:39;18.30;99.90
38902;DHT22;24661;53.566;9.910;2022-08-01T07:34:04;18.30;99.90
38902;DHT22;24661;53.566;9.910;2022-08-01T07:36:30;18.40;99.90
38902;DHT22;24661;53.566;9.910;2022-08-01T07:38:56;18.50;99.90
38902;DHT22;24661;53.566;9.910;2022-08-01T07:41:22;18.40;99.90
38902;DHT22;24661;53.566;9.910;2022-08-01T07:43:48;18.40;99.90
38902;DHT22;24661;53.566;9.910;2022-08-01T07:46:15;18.40;99.90
38902;DHT22;24661;53.566;9.910;2022-08-01T07:48:41;18.40;99.90
38902;DHT22;24661;53.566;9.910;2022-08-01T07:51:07;18.40;99.90
38902;DHT22;24661;53.566;9.910;2022-08-01T07:53:34;18.40;99.90
38902;DHT22;24661;53.566;9.910;2022-08-01T07:56:00;18.40;99.90
38902;DHT22;24661;53.566;9.910;2022-08-01T07:58:27;18.50;99.90
38902;DHT22;24661;53.566;9.910;2022-08-01T08:00:53;18.50;99.90
38902;DHT22;24661;53.566;9.910;2022-08-01T08:03:19;18.60;99.90
38902;DHT22;24661;53.566;9.910;2022-08-01T08:05:44;18.70;99.90
38902;DHT22;24661;53.566;9.910;2022-08-01T08:08:10;18.60;99.90
38902;DHT22;24661;53.566;9.910;2022-08-01T08:10:37;18.60;99.90
38902;DHT22;24661;53.566;9.910;2022-08-01T08:13:02;18.80;99.90
38902;DHT22;24661;53.566;9.910;2022-08-01T08:15:28;18.70;99.90
38902;DHT22;24661;53.566;9.910;2022-08-01T08:17:54;18.50;99.90
38902;DHT22;24661;53.566;9.910;2022-08-01T08:20:20;18.40;99.90
38902;DHT22;24661;53.566;9.910;2022-08-01T08:22:50;18.20;99.90
38902;DHT22;24661;53.566;9.910;2022-08-01T08:25:17;18.20;99.90
38902;DHT22;24661;53.566;9.910;2022-08-01T08:27:45;18.10;99.90
38902;DHT22;24661;53.566;9.910;2022-08-01T08:30:12;18.20;99.90
38902;DHT22;24661;53.566;9.910;2022-08-01T08:32:38;18.20;99.90
38902;DHT22;24661;53.566;9.910;2022-08-01T08:35:05;18.20;99.90
38902;DHT22;24661;53.566;9.910;2022-08-01T08:37:32;18.20;99.90
38902;DHT22;24661;53.566;9.910;2022-08-01T08:39:57;18.30;99.90
38902;DHT22;24661;53.566;9.910;2022-08-01T08:42:25;18.30;99.90
38902;DHT22;24661;53.566;9.910;2022-08-01T08:44:50;18.40;99.90
38902;DHT22;24661;53.566;9.910;2022-08-01T08:47:17;18.40;99.90
38902;DHT22;24661;53.566;9.910;2022-08-01T08:49:44;18.60;99.90
38902;DHT22;24661;53.566;9.910;2022-08-01T08:52:11;18.70;99.90
38902;DHT22;24661;53.566;9.910;2022-08-01T08:54:38;18.80;99.90
38902;DHT22;24661;53.566;9.910;2022-08-01T08:57:06;18.80;99.90
38902;DHT22;24661;53.566;9.910;2022-08-01T08:59:32;19.00;99.90
38902;DHT22;24661;53.566;9.910;2022-08-01T09:01:59;18.90;99.90
38902;DHT22;24661;53.566;9.910;2022-08-01T09:04:25;19.00;99.90
38902;DHT22;24661;53.566;9.910;2022-08-01T09:06:52;19.00;99.90
38902;DHT22;24661;53.566;9.910;2022-08-01T09:09:18;19.00;99.90
38902;DHT22;24661;53.566;9.910;2022-08-01T09:11:44;19.00;99.90
38902;DHT22;24661;53.566;9.910;2022-08-01T09:16:40;19.20;99.90
38902;DHT22;24661;53.566;9.910;2022-08-01T09:19:18;19.30;99.90
38902;DHT22;24661;53.566;9.910;2022-08-01T09:22:01;19.30;99.90
38902;DHT22;24661;53.566;9.910;2022-08-01T09:24:30;19.40;99.90
38902;DHT22;24661;53.566;9.910;2022-08-01T09:26:56;19.50;99.90
38902;DHT22;24661;53.566;9.910;2022-08-01T09:29:25;19.60;99.90
38902;DHT22;24661;53.566;9.910;2022-08-01T09:31:50;19.90;99.90
38902;DHT22;24661;53.566;9.910;2022-08-01T09:34:27;19.80;99.90
38902;DHT22;24661;53.566;9.910;2022-08-01T09:36:56;19.90;99.90
38902;DHT22;24661;53.566;9.910;2022-08-01T09:39:30;19.90;99.90
38902;DHT22;24661;53.566;9.910;2022-08-01T09:41:58;20.00;99.90
38902;DHT22;24661;53.566;9.910;2022-08-01T09:44:42;20.00;99.90
38902;DHT22;24661;53.566;9.910;2022-08-01T09:47:07;20.10;99.90
38902;DHT22;24661;53.566;9.910;2022-08-01T09:49:37;20.20;99.90
38902;DHT22;24661;53.566;9.910;2022-08-01T09:52:16;20.10;99.90
38902;DHT22;24661;53.566;9.910;2022-08-01T09:54:43;20.20;99.90
38902;DHT22;24661;53.566;9.910;2022-08-01T09:57:14;20.20;99.90
38902;DHT22;24661;53.566;9.910;2022-08-01T09:59:42;20.40;99.90
38902;DHT22;24661;53.566;9.910;2022-08-01T10:02:10;20.40;99.90
38902;DHT22;24661;53.566;9.910;2022-08-01T10:04:46;20.20;99.90
38902;DHT22;24661;53.566;9.910;2022-08-01T10:07:13;20.20;99.90
38902;DHT22;24661;53.566;9.910;2022-08-01T10:09:42;20.20;99.90
38902;DHT22;24661;53.566;9.910;2022-08-01T10:12:09;20.30;99.90
38902;DHT22;24661;53.566;9.910;2022-08-01T10:14:37;20.30;99.90
38902;DHT22;24661;53.566;9.910;2022-08-01T10:17:04;20.60;99.90
38902;DHT22;24661;53.566;9.910;2022-08-01T10:19:32;20.70;99.90
38902;DHT22;24661;53.566;9.910;2022-08-01T10:21:58;20.80;99.90
38902;DHT22;24661;53.566;9.910;2022-08-01T10:24:26;20.80;99.90
38902;DHT22;24661;53.566;9.910;2022-08-01T10:26:56;20.80;99.90
38902;DHT22;24661;53.566;9.910;2022-08-01T10:29:25;20.80;99.90
38902;DHT22;24661;53.566;9.910;2022-08-01T10:31:52;20.70;99.90
38902;DHT22;24661;53.566;9.910;2022-08-01T10:34:18;20.70;99.90
38902;DHT22;24661;53.566;9.910;2022-08-01T10:36:46;20.70;99.90
38902;DHT22;24661;53.566;9.910;2022-08-01T10:39:12;20.50;99.90
38902;DHT22;24661;53.566;9.910;2022-08-01T10:41:41;20.70;99.90
38902;DHT22;24661;53.566;9.910;2022-08-01T10:44:07;20.70;99.90
38902;DHT22;24661;53.566;9.910;2022-08-01T10:46:38;20.80;99.90
38902;DHT22;24661;53.566;9.910;2022-08-01T10:49:07;20.70;99.90
38902;DHT22;24661;53.566;9.910;2022-08-01T10:51:37;20.80;99.90
38902;DHT22;24661;53.566;9.910;2022-08-01T10:54:09;20.70;99.90
38902;DHT22;24661;53.566;9.910;2022-08-01T10:56:50;20.70;99.90
38902;DHT22;24661;53.566;9.910;2022-08-01T10:59:25;20.70;99.90
38902;DHT22;24661;53.566;9.910;2022-08-01T11:01:59;20.80;99.90
38902;DHT22;24661;53.566;9.910;2022-08-01T11:07:20;20.80;99.90
38902;DHT22;24661;53.566;9.910;2022-08-01T11:10:00;20.90;99.90
38902;DHT22;24661;53.566;9.910;2022-08-01T11:12:41;20.90;99.90
38902;DHT22;24661;53.566;9.910;2022-08-01T11:17:43;21.00;99.90
38902;DHT22;24661;53.566;9.910;2022-08-01T11:20:24;21.10;99.90
38902;DHT22;24661;53.566;9.910;2022-08-01T11:30:54;20.90;99.90
38902;DHT22;24661;53.566;9.910;2022-08-01T11:43:35;21.40;99.90
38902;DHT22;24661;53.566;9.910;2022-08-01T11:46:00;21.40;99.90
38902;DHT22;24661;53.566;9.910;2022-08-01T11:48:27;21.50;99.90
38902;DHT22;24661;53.566;9.910;2022-08-01T11:50:57;21.40;99.90
38902;DHT22;24661;53.566;9.910;2022-08-01T11:53:23;21.40;99.90
38902;DHT22;24661;53.566;9.910;2022-08-01T11:55:51;21.50;99.90
38902;DHT22;24661;53.566;9.910;2022-08-01T11:58:25;21.40;99.90
38902;DHT22;24661;53.566;9.910;2022-08-01T12:00:55;21.40;99.90
38902;DHT22;24661;53.566;9.910;2022-08-01T12:03:26;21.50;99.90
38902;DHT22;24661;53.566;9.910;2022-08-01T12:05:55;21.50;99.90
38902;DHT22;24661;53.566;9.910;2022-08-01T12:10:51;21.40;99.90
38902;DHT22;24661;53.566;9.910;2022-08-01T12:13:16;21.30;99.90
38902;DHT22;24661;53.566;9.910;2022-08-01T12:15:43;21.40;99.90
38902;DHT22;24661;53.566;9.910;2022-08-01T12:18:10;21.40;99.90
38902;DHT22;24661;53.566;9.910;2022-08-01T12:20:38;21.30;99.90
38902;DHT22;24661;53.566;9.910;2022-08-01T12:23:09;21.20;99.90
38902;DHT22;24661;53.566;9.910;2022-08-01T12:25:36;21.30;99.90
38902;DHT22;24661;53.566;9.910;2022-08-01T12:28:04;21.30;99.90
38902;DHT22;24661;53.566;9.910;2022-08-01T12:30:31;21.50;99.90
38902;DHT22;24661;53.566;9.910;2022-08-01T12:32:57;21.70;99.90
38902;DHT22;24661;53.566;9.910;2022-08-01T12:35:25;21.80;99.90
38902;DHT22;24661;53.566;9.910;2022-08-01T12:38:13;21.70;99.90
38902;DHT22;24661;53.566;9.910;2022-08-01T12:40:44;21.80;99.90
38902;DHT22;24661;53.566;9.910;2022-08-01T12:43:16;21.90;99.90
38902;DHT22;24661;53.566;9.910;2022-08-01T12:45:44;21.80;99.90
38902;DHT22;24661;53.566;9.910;2022-08-01T12:48:14;21.60;99.90
38902;DHT22;24661;53.566;9.910;2022-08-01T12:50:45;21.60;99.90
38902;DHT22;24661;53.566;9.910;2022-08-01T12:53:12;21.70;99.90
38902;DHT22;24661;53.566;9.910;2022-08-01T12:55:50;21.60;99.90
38902;DHT22;24661;53.566;9.910;2022-08-01T12:58:17;21.50;99.90
38902;DHT22;24661;53.566;9.910;2022-08-01T13:00:46;21.50;99.90
38902;DHT22;24661;53.566;9.910;2022-08-01T13:03:19;21.50;99.90
38902;DHT22;24661;53.566;9.910;2022-08-01T13:05:51;21.60;99.90
38902;DHT22;24661;53.566;9.910;2022-08-01T13:08:19;21.40;99.90
38902;DHT22;24661;53.566;9.910;2022-08-01T13:10:46;21.30;99.90
38902;DHT22;24661;53.566;9.910;2022-08-01T13:13:14;21.30;99.90
38902;DHT22;24661;53.566;9.910;2022-08-01T13:15:42;21.30;99.90
38902;DHT22;24661;53.566;9.910;2022-08-01T13:23:33;21.30;99.90
38902;DHT22;24661;53.566;9.910;2022-08-01T13:25:59;21.30;99.90
38902;DHT22;24661;53.566;9.910;2022-08-01T13:28:26;21.30;99.90
38902;DHT22;24661;53.566;9.910;2022-08-01T13:30:59;21.20;99.90
38902;DHT22;24661;53.566;9.910;2022-08-01T13:33:27;21.20;99.90
38902;DHT22;24661;53.566;9.910;2022-08-01T13:35:54;21.10;99.90
38902;DHT22;24661;53.566;9.910;2022-08-01T13:38:20;21.20;99.90
38902;DHT22;24661;53.566;9.910;2022-08-01T13:41:06;21.10;99.90
38902;DHT22;24661;53.566;9.910;2022-08-01T13:43:33;21.00;99.90
38902;DHT22;24661;53.566;9.910;2022-08-01T13:45:59;20.90;99.90
38902;DHT22;24661;53.566;9.910;2022-08-01T13:48:25;20.80;99.90
38902;DHT22;24661;53.566;9.910;2022-08-01T13:50:50;20.80;99.90
38902;DHT22;24661;53.566;9.910;2022-08-01T13:53:16;20.90;99.90
38902;DHT22;24661;53.566;9.910;2022-08-01T13:55:43;20.80;99.90
38902;DHT22;24661;53.566;9.910;2022-08-01T13:58:08;20.90;99.90
38902;DHT22;24661;53.566;9.910;2022-08-01T14:00:34;20.80;99.90
38902;DHT22;24661;53.566;9.910;2022-08-01T14:03:00;20.80;99.90
38902;DHT22;24661;53.566;9.910;2022-08-01T14:05:26;20.70;99.90
38902;DHT22;24661;53.566;9.910;2022-08-01T14:07:52;20.90;99.90
38902;DHT22;24661;53.566;9.910;2022-08-01T14:10:17;21.00;99.90
38902;DHT22;24661;53.566;9.910;2022-08-01T14:12:43;21.00;99.90
38902;DHT22;24661;53.566;9.910;2022-08-01T14:15:09;20.90;99.90
38902;DHT22;24661;53.566;9.910;2022-08-01T14:17:35;20.80;99.90
38902;DHT22;24661;53.566;9.910;2022-08-01T14:20:00;20.90;99.90
38902;DHT22;24661;53.566;9.910;2022-08-01T14:22:27;20.80;99.90
38902;DHT22;24661;53.566;9.910;2022-08-01T14:24:53;20.90;99.90
38902;DHT22;24661;53.566;9.910;2022-08-01T14:27:19;20.60;99.90
38902;DHT22;24661;53.566;9.910;2022-08-01T14:29:44;20.70;99.90
38902;DHT22;24661;53.566;9.910;2022-08-01T14:32:12;20.70;99.90
38902;DHT22;24661;53.566;9.910;2022-08-01T14:34:37;20.60;99.90
38902;DHT22;24661;53.566;9.910;2022-08-01T14:37:03;20.70;99.90
38902;DHT22;24661;53.566;9.910;2022-08-01T14:39:29;20.60;99.90
38902;DHT22;24661;53.566;9.910;2022-08-01T14:41:54;20.60;99.90
38902;DHT22;24661;53.566;9.910;2022-08-01T14:44:20;20.60;99.90
38902;DHT22;24661;53.566;9.910;2022-08-01T14:46:45;20.60;99.90
38902;DHT22;24661;53.566;9.910;2022-08-01T14:49:13;20.60;99.90
38902;DHT22;24661;53.566;9.910;2022-08-01T14:51:39;20.40;99.90
38902;DHT22;24661;53.566;9.910;2022-08-01T14:54:05;20.50;99.90
38902;DHT22;24661;53.566;9.910;2022-08-01T14:56:31;20.50;99.90
38902;DHT22;24661;53.566;9.910;2022-08-01T14:58:56;20.40;99.90
38902;DHT22;24661;53.566;9.910;2022-08-01T15:01:22;20.50;99.90
38902;DHT22;24661;53.566;9.910;2022-08-01T15:03:48;20.40;99.90
38902;DHT22;24661;53.566;9.910;2022-08-01T15:06:16;20.30;99.90
38902;DHT22;24661;53.566;9.910;2022-08-01T15:08:41;20.20;99.90
38902;DHT22;24661;53.566;9.910;2022-08-01T15:11:08;20.30;99.90
38902;DHT22;24661;53.566;9.910;2022-08-01T15:13:34;20.30;99.90
38902;DHT22;24661;53.566;9.910;2022-08-01T15:15:59;20.30;99.90
38902;DHT22;24661;53.566;9.910;2022-08-01T15:18:25;20.20;99.90
38902;DHT22;24661;53.566;9.910;2022-08-01T15:20:51;20.10;99.90
38902;DHT22;24661;53.566;9.910;2022-08-01T15:23:16;20.00;99.90
38902;DHT22;24661;53.566;9.910;2022-08-01T15:25:42;20.00;99.90
38902;DHT22;24661;53.566;9.910;2022-08-01T15:28:09;20.00;99.90
38902;DHT22;24661;53.566;9.910;2022-08-01T15:30:35;20.10;99.90
38902;DHT22;24661;53.566;9.910;2022-08-01T15:33:00;19.90;99.90
38902;DHT22;24661;53.566;9.910;2022-08-01T15:35:26;19.80;99.90
38902;DHT22;24661;53.566;9.910;2022-08-01T15:37:51;19.90;99.90
38902;DHT22;24661;53.566;9.910;2022-08-01T15:40:17;19.80;99.90
38902;DHT22;24661;53.566;9.910;2022-08-01T15:42:44;19.80;99.90
38902;DHT22;24661;53.566;9.910;2022-08-01T15:45:10;19.70;99.90
38902;DHT22;24661;53.566;9.910;2022-08-01T15:47:35;19.80;99.90
38902;DHT22;24661;53.566;9.910;2022-08-01T15:50:01;19.70;99.90
38902;DHT22;24661;53.566;9.910;2022-08-01T15:52:28;19.70;99.90
38902;DHT22;24661;53.566;9.910;2022-08-01T15:54:54;19.60;99.90
38902;DHT22;24661;53.566;9.910;2022-08-01T15:57:19;19.60;99.90
38902;DHT22;24661;53.566;9.910;2022-08-01T15:59:45;19.50;99.90
38902;DHT22;24661;53.566;9.910;2022-08-01T16:02:10;19.50;99.90
38902;DHT22;24661;53.566;9.910;2022-08-01T16:04:36;19.30;99.90
38902;DHT22;24661;53.566;9.910;2022-08-01T16:07:02;19.40;99.90
38902;DHT22;24661;53.566;9.910;2022-08-01T16:09:27;19.40;99.90
38902;DHT22;24661;53.566;9.910;2022-08-01T16:11:53;19.40;99.90
38902;DHT22;24661;53.566;9.910;2022-08-01T16:14:18;19.40;99.90